Time;durP1;ratioP1;P1;durP2;ratioP2;P2;SDS_P1;SDS_P2;PMS_P1;PMS_P2;Temp;Humidity;BMP_temperature;BMP_pressure;BME280_temperature;BME280_humidity;BME280_pressure;Samples;Min_cycle;Max_cycle;Signal;HPM_P1;HPM_P2
2022/05/19 00:01:18;;;;;;;;;;;;;;;26.69;34.12;101727.94;5075800;28;916;-35
2022/05/19 00:03:43;;;;;;;;;;;;;;;26.69;33.75;101736.91;5076314;28;1898;-38
2022/05/19 00:06:09;;;;;;;;;;;;;;;26.70;34.02;101737.72;5070148;28;838;-35
2022/05/19 00:08:34;;;;;;;;;;;;;;;26.68;33.99;101732.50;5076475;28;925;-36
2022/05/19 00:11:00;;;;;;;;;;;;;;;26.73;34.36;101742.81;5075935;28;866;-33
2022/05/19 00:13:26;;;;;;;;;;;;;;;26.69;34.23;101742.31;5076381;28;814;-36
2022/05/19 00:15:51;;;;;;;;;;;;;;;26.64;33.95;101742.75;5075818;28;840;-35
2022/05/19 00:18:17;;;;;;;;;;;;;;;26.65;34.31;101740.91;5076222;28;943;-36
2022/05/19 00:20:42;;;;;;;;;;;;;;;26.67;34.07;101740.75;5076630;28;809;-35
2022/05/19 00:23:07;;;;;;;;;;;;;;;26.68;34.18;101745.97;5076348;28;1894;-36
2022/05/19 00:25:33;;;;;;;;;;;;;;;26.71;34.21;101737.56;5075873;28;1194;-34
2022/05/19 00:27:59;;;;;;;;;;;;;;;26.68;33.82;101739.72;5075761;28;858;-34
2022/05/19 00:30:24;;;;;;;;;;;;;;;26.67;33.94;101746.13;5075902;28;836;-35
2022/05/19 00:32:49;;;;;;;;;;;;;;;26.66;34.03;101739.88;5075974;28;781;-36
2022/05/19 00:35:15;;;;;;;;;;;;;;;26.65;34.31;101738.19;5076334;28;854;-34
2022/05/19 00:37:40;;;;;;;;;;;;;;;26.67;33.92;101728.09;5075513;28;781;-36
2022/05/19 00:40:06;;;;;;;;;;;;;;;26.68;34.21;101731.63;5075699;28;868;-37
2022/05/19 00:42:43;;;;;;;;;;;;;;;26.64;33.81;101731.13;5076110;28;1905;-38
2022/05/19 00:45:09;;;;;;;;;;;;;;;26.65;34.24;101730.97;5075875;28;848;-38
2022/05/19 00:47:37;;;;;;;;;;;;;;;26.67;33.98;101733.50;5075815;28;786;-37
2022/05/19 00:50:03;;;;;;;;;;;;;;;26.71;33.98;101734.03;5058511;28;793;-37
2022/05/19 00:52:29;;;;;;;;;;;;;;;26.64;33.96;101726.53;5057009;28;892;-38
2022/05/19 00:55:04;;;;;;;;;;;;;;;26.66;33.89;101731.78;5057725;28;1389;-37
2022/05/19 00:57:30;;;;;;;;;;;;;;;26.63;33.93;101732.09;5076116;28;837;-36
2022/05/19 00:59:56;;;;;;;;;;;;;;;26.61;34.11;101726.88;5075394;28;857;-35
2022/05/19 01:02:23;;;;;;;;;;;;;;;26.62;33.90;101730.41;5072215;28;835;-38
2022/05/19 01:04:48;;;;;;;;;;;;;;;26.63;34.17;101734.81;5057145;28;1906;-33
2022/05/19 01:07:15;;;;;;;;;;;;;;;26.66;33.97;101731.78;5075382;28;806;-37
2022/05/19 01:09:40;;;;;;;;;;;;;;;26.58;33.84;101737.97;5057070;28;912;-37
2022/05/19 01:12:06;;;;;;;;;;;;;;;26.57;34.00;101735.44;5058174;28;916;-36
2022/05/19 01:14:31;;;;;;;;;;;;;;;26.60;33.75;101733.28;5075636;28;941;-35
2022/05/19 01:16:57;;;;;;;;;;;;;;;26.59;34.18;101736.13;5074983;28;978;-35
2022/05/19 01:19:28;;;;;;;;;;;;;;;26.63;34.12;101740.19;5075487;28;928;-33
2022/05/19 01:21:54;;;;;;;;;;;;;;;26.53;33.93;101735.75;5075555;28;854;-32
2022/05/19 01:24:22;;;;;;;;;;;;;;;26.59;34.06;101736.97;5075358;28;1968;-38
2022/05/19 01:26:52;;;;;;;;;;;;;;;26.57;34.09;101741.69;5075485;28;1236;-32
2022/05/19 01:29:18;;;;;;;;;;;;;;;26.61;34.20;101747.63;5057477;28;874;-34
2022/05/19 01:31:46;;;;;;;;;;;;;;;26.62;33.83;101746.63;5055736;28;884;-38
2022/05/19 01:34:12;;;;;;;;;;;;;;;26.60;33.82;101745.91;5075315;28;837;-38
2022/05/19 01:36:37;;;;;;;;;;;;;;;26.58;33.94;101737.13;5075348;28;767;-37
2022/05/19 01:39:02;;;;;;;;;;;;;;;26.56;34.09;101741.84;5075219;28;844;-37
2022/05/19 01:41:30;;;;;;;;;;;;;;;26.60;34.17;101737.81;5075349;28;836;-36
2022/05/19 01:43:58;;;;;;;;;;;;;;;26.59;34.12;101741.53;5074915;28;1964;-33
2022/05/19 01:46:33;;;;;;;;;;;;;;;26.60;33.88;101740.50;5075160;28;826;-34
2022/05/19 01:49:01;;;;;;;;;;;;;;;26.58;33.94;101731.72;5075829;28;805;-33
2022/05/19 01:51:29;;;;;;;;;;;;;;;26.58;34.09;101734.41;5079031;28;1015;-34
2022/05/19 01:54:13;;;;;;;;;;;;;;;26.53;34.03;101734.88;5078922;28;800;-33
2022/05/19 01:56:57;;;;;;;;;;;;;;;26.51;34.28;101736.88;5078567;28;905;-37
2022/05/19 01:59:28;;;;;;;;;;;;;;;26.53;34.05;101732.19;5072616;28;1393;-38
2022/05/19 02:02:03;;;;;;;;;;;;;;;26.48;34.11;101738.06;5074912;28;833;-36
2022/05/19 02:04:39;;;;;;;;;;;;;;;26.56;34.01;101733.75;5078827;28;1964;-38
2022/05/19 02:07:04;;;;;;;;;;;;;;;26.55;34.20;101735.59;5078753;28;854;-36
2022/05/19 02:09:34;;;;;;;;;;;;;;;26.56;34.35;101736.44;5060023;28;941;-35
2022/05/19 02:12:01;;;;;;;;;;;;;;;26.55;33.64;101737.44;5078493;28;1010;-38
2022/05/19 02:14:33;;;;;;;;;;;;;;;26.58;34.04;101739.81;5078523;28;1421;-34
2022/05/19 02:16:58;;;;;;;;;;;;;;;26.57;34.14;101733.59;5059712;28;954;-36
2022/05/19 02:19:24;;;;;;;;;;;;;;;26.56;34.00;101742.66;5061077;28;1151;-34
2022/05/19 02:21:50;;;;;;;;;;;;;;;26.59;33.96;101742.34;5078395;28;872;-33
2022/05/19 02:24:17;;;;;;;;;;;;;;;26.58;33.90;101740.66;5078127;28;1902;-36
2022/05/19 02:26:42;;;;;;;;;;;;;;;26.57;33.48;101744.38;5060550;28;1032;-32
2022/05/19 02:29:08;;;;;;;;;;;;;;;26.54;34.04;101750.09;5078246;28;810;-34
2022/05/19 02:31:34;;;;;;;;;;;;;;;26.63;34.10;101746.47;5077868;28;834;-37
2022/05/19 02:33:59;;;;;;;;;;;;;;;26.68;34.05;101750.53;5078020;28;940;-38
2022/05/19 02:36:24;;;;;;;;;;;;;;;26.62;33.85;101747.47;5078473;28;922;-36
2022/05/19 02:38:50;;;;;;;;;;;;;;;26.58;34.15;101747.91;5078103;28;823;-36
2022/05/19 02:41:15;;;;;;;;;;;;;;;26.62;34.19;101752.00;5078427;28;917;-34
2022/05/19 02:43:40;;;;;;;;;;;;;;;26.59;34.17;101755.84;5077830;28;1902;-37
2022/05/19 02:46:05;;;;;;;;;;;;;;;26.59;34.14;101755.84;5077801;28;820;-34
2022/05/19 02:48:31;;;;;;;;;;;;;;;26.57;33.79;101754.31;5077959;28;896;-35
2022/05/19 02:50:56;;;;;;;;;;;;;;;26.60;33.85;101764.81;5078077;28;918;-36
2022/05/19 02:53:22;;;;;;;;;;;;;;;26.57;34.14;101759.72;5077490;28;943;-38
2022/05/19 02:55:47;;;;;;;;;;;;;;;26.60;34.13;101759.41;5077918;28;1004;-36
2022/05/19 02:58:12;;;;;;;;;;;;;;;26.57;34.16;101755.19;5077668;28;749;-36
2022/05/19 03:00:38;;;;;;;;;;;;;;;26.54;34.26;101763.59;5076597;28;926;-38
2022/05/19 03:03:04;;;;;;;;;;;;;;;26.53;34.15;101761.88;5077716;28;1918;-33
2022/05/19 03:05:29;;;;;;;;;;;;;;;26.56;34.04;101763.44;5077723;28;818;-35
2022/05/19 03:07:55;;;;;;;;;;;;;;;26.54;34.06;101766.28;5059499;28;934;-34
2022/05/19 03:10:20;;;;;;;;;;;;;;;26.55;34.03;101765.28;5077604;28;791;-36
2022/05/19 03:12:45;;;;;;;;;;;;;;;26.52;34.08;101770.97;5077395;28;813;-37
2022/05/19 03:15:11;;;;;;;;;;;;;;;26.55;34.21;101777.91;5076979;28;899;-37
2022/05/19 03:17:36;;;;;;;;;;;;;;;26.55;34.29;101777.91;5077296;28;1061;-39
2022/05/19 03:20:02;;;;;;;;;;;;;;;26.53;34.05;101768.13;5077490;28;856;-37
2022/05/19 03:22:28;;;;;;;;;;;;;;;26.45;33.87;101767.19;5077447;28;789;-34
2022/05/19 03:24:53;;;;;;;;;;;;;;;26.48;34.05;101770.44;5076974;28;1906;-33
2022/05/19 03:27:20;;;;;;;;;;;;;;;26.57;33.69;101778.59;5077249;28;1256;-33
2022/05/19 03:29:45;;;;;;;;;;;;;;;26.66;33.57;101772.28;5077571;28;849;-35
2022/05/19 03:32:11;;;;;;;;;;;;;;;26.59;33.73;101774.75;5076960;28;857;-35
2022/05/19 03:34:36;;;;;;;;;;;;;;;26.57;34.29;101774.06;5076994;28;845;-35
2022/05/19 03:37:02;;;;;;;;;;;;;;;26.50;32.44;101771.13;5076574;28;841;-32
2022/05/19 03:39:27;;;;;;;;;;;;;;;26.03;29.95;101770.28;5077450;28;820;-32
2022/05/19 03:41:52;;;;;;;;;;;;;;;24.99;29.65;101770.16;5076358;28;1096;-32
2022/05/19 03:44:18;;;;;;;;;;;;;;;24.23;30.28;101769.84;5075960;28;1898;-35
2022/05/19 03:46:43;;;;;;;;;;;;;;;23.45;30.99;101776.59;5076146;28;1147;-34
2022/05/19 03:49:09;;;;;;;;;;;;;;;22.83;31.58;101766.53;5077086;28;885;-30
2022/05/19 03:51:34;;;;;;;;;;;;;;;22.46;31.95;101771.28;5075932;28;998;-35
2022/05/19 03:53:59;;;;;;;;;;;;;;;22.26;32.25;101779.13;5058828;28;753;-34
2022/05/19 03:56:25;;;;;;;;;;;;;;;22.12;32.43;101777.56;5077035;28;816;-34
2022/05/19 03:58:50;;;;;;;;;;;;;;;22.46;32.59;101783.81;5075121;28;1432;-39
2022/05/19 04:01:16;;;;;;;;;;;;;;;23.53;31.51;101784.84;5057476;28;985;-32
2022/05/19 04:03:41;;;;;;;;;;;;;;;24.15;30.47;101781.25;5075961;28;1964;-31
2022/05/19 04:06:06;;;;;;;;;;;;;;;24.41;30.04;101785.28;5074537;28;1338;-36
2022/05/19 04:08:32;;;;;;;;;;;;;;;24.55;29.86;101792.97;5076489;28;788;-34
2022/05/19 04:10:57;;;;;;;;;;;;;;;24.63;29.63;101784.19;5076806;28;727;-36
2022/05/19 04:13:23;;;;;;;;;;;;;;;24.70;29.40;101792.53;5076373;28;856;-33
2022/05/19 04:15:48;;;;;;;;;;;;;;;24.71;29.44;101791.53;5074921;28;1357;-34
2022/05/19 04:18:14;;;;;;;;;;;;;;;24.61;29.88;101793.41;5074539;28;1326;-37
2022/05/19 04:20:39;;;;;;;;;;;;;;;23.39;30.80;101790.53;5076303;28;816;-34
2022/05/19 04:23:05;;;;;;;;;;;;;;;23.12;31.10;101793.59;5075434;28;1901;-34
2022/05/19 04:25:30;;;;;;;;;;;;;;;23.01;31.06;101793.66;5076055;28;1180;-33
2022/05/19 04:27:56;;;;;;;;;;;;;;;22.76;31.71;101793.03;5075715;28;852;-35
2022/05/19 04:30:21;;;;;;;;;;;;;;;22.59;31.77;101783.66;5075685;28;915;-33
2022/05/19 04:32:47;;;;;;;;;;;;;;;22.56;31.81;101779.41;5057958;28;986;-36
2022/05/19 04:35:12;;;;;;;;;;;;;;;22.53;32.06;101784.19;5075919;28;782;-36
2022/05/19 04:37:37;;;;;;;;;;;;;;;22.32;31.97;101788.50;5076404;28;733;-36
2022/05/19 04:40:03;;;;;;;;;;;;;;;22.25;32.33;101792.66;5076044;28;770;-36
2022/05/19 04:42:29;;;;;;;;;;;;;;;22.21;32.56;101789.38;5075796;28;801;-37
2022/05/19 04:44:54;;;;;;;;;;;;;;;21.82;32.89;101788.94;5075600;28;1913;-38
2022/05/19 04:47:19;;;;;;;;;;;;;;;22.65;31.66;101791.25;5075291;28;1389;-37
2022/05/19 04:49:45;;;;;;;;;;;;;;;23.32;30.67;101798.25;5056750;28;1069;-38
2022/05/19 04:52:10;;;;;;;;;;;;;;;23.67;30.21;101798.91;5074390;28;1238;-39
2022/05/19 04:54:35;;;;;;;;;;;;;;;23.91;29.82;101793.19;5072408;28;873;-37
2022/05/19 04:57:01;;;;;;;;;;;;;;;24.06;29.86;101791.00;5075943;28;873;-38
2022/05/19 04:59:26;;;;;;;;;;;;;;;23.99;29.79;101792.50;5075604;28;786;-40
2022/05/19 05:01:51;;;;;;;;;;;;;;;24.03;29.59;101782.34;5075622;28;874;-38
2022/05/19 05:04:17;;;;;;;;;;;;;;;24.19;29.32;101788.06;5075192;28;1977;-37
2022/05/19 05:06:42;;;;;;;;;;;;;;;24.26;29.27;101787.50;5075103;28;885;-37
2022/05/19 05:09:08;;;;;;;;;;;;;;;24.30;29.25;101792.50;5076089;28;864;-38
2022/05/19 05:11:34;;;;;;;;;;;;;;;24.34;29.40;101793.91;5076028;28;896;-39
2022/05/19 05:13:59;;;;;;;;;;;;;;;24.41;29.30;101791.53;5076302;28;924;-39
2022/05/19 05:16:24;;;;;;;;;;;;;;;24.42;29.46;101803.97;5075336;28;816;-38
2022/05/19 05:18:50;;;;;;;;;;;;;;;24.37;29.76;101797.31;5075839;28;754;-38
2022/05/19 05:21:15;;;;;;;;;;;;;;;24.48;29.44;101804.41;5074999;28;1068;-37
2022/05/19 05:23:40;;;;;;;;;;;;;;;24.48;29.31;101812.47;5074881;28;2024;-39
2022/05/19 05:26:06;;;;;;;;;;;;;;;24.49;29.17;101806.13;5079058;28;1036;-37
2022/05/19 05:28:32;;;;;;;;;;;;;;;24.52;29.42;101812.09;5079789;28;825;-39
2022/05/19 05:30:57;;;;;;;;;;;;;;;24.53;29.49;101813.78;5078829;28;868;-36
2022/05/19 05:33:22;;;;;;;;;;;;;;;24.61;29.24;101820.31;5079368;28;912;-37
2022/05/19 05:35:47;;;;;;;;;;;;;;;24.61;29.42;101820.31;5076799;28;1195;-39
2022/05/19 05:38:13;;;;;;;;;;;;;;;24.64;29.47;101820.84;5074191;28;997;-38
2022/05/19 05:40:38;;;;;;;;;;;;;;;24.70;29.74;101822.13;5078745;28;944;-36
2022/05/19 05:43:13;;;;;;;;;;;;;;;24.72;29.62;101827.38;5077756;28;1914;-37
2022/05/19 05:45:39;;;;;;;;;;;;;;;24.86;30.30;101823.44;5078710;28;766;-39
2022/05/19 05:48:04;;;;;;;;;;;;;;;25.05;31.22;101825.28;5079311;28;787;-40
2022/05/19 05:50:30;;;;;;;;;;;;;;;25.18;30.88;101828.53;5079379;28;760;-39
2022/05/19 05:52:55;;;;;;;;;;;;;;;25.03;30.19;101827.25;5078829;28;805;-38
2022/05/19 05:55:20;;;;;;;;;;;;;;;25.04;30.54;101826.28;5078742;28;836;-37
2022/05/19 05:57:46;;;;;;;;;;;;;;;25.05;31.16;101826.16;5078348;28;746;-37
2022/05/19 06:00:11;;;;;;;;;;;;;;;25.10;32.02;101823.03;5078303;28;1015;-35
2022/05/19 06:02:37;;;;;;;;;;;;;;;25.39;31.79;101829.38;5076189;28;990;-40
2022/05/19 06:05:02;;;;;;;;;;;;;;;25.38;30.98;101830.34;5078787;28;1894;-39
2022/05/19 06:07:29;;;;;;;;;;;;;;;25.35;31.00;101828.81;5077389;28;1116;-39
2022/05/19 06:09:54;;;;;;;;;;;;;;;25.35;30.62;101828.81;5071411;28;1360;-37
2022/05/19 06:12:19;;;;;;;;;;;;;;;25.30;30.56;101815.78;5074869;28;1417;-39
2022/05/19 06:14:45;;;;;;;;;;;;;;;25.34;30.91;101837.03;5077858;28;1367;-38
2022/05/19 06:17:10;;;;;;;;;;;;;;;25.35;31.20;101830.63;5077662;28;1190;-38
2022/05/19 06:19:35;;;;;;;;;;;;;;;25.46;31.62;101838.53;5078814;28;801;-38
2022/05/19 06:22:00;;;;;;;;;;;;;;;25.42;30.18;101835.28;5078278;28;878;-38
2022/05/19 06:24:26;;;;;;;;;;;;;;;25.34;29.34;101831.63;5078019;28;1902;-38
2022/05/19 06:26:51;;;;;;;;;;;;;;;25.20;29.11;101825.69;5076558;28;1254;-38
2022/05/19 06:29:16;;;;;;;;;;;;;;;25.27;28.99;101834.06;5055471;28;1125;-37
2022/05/19 06:31:42;;;;;;;;;;;;;;;25.35;29.33;101834.19;5076689;28;943;-41
2022/05/19 06:34:07;;;;;;;;;;;;;;;25.47;30.39;101847.47;5078521;28;775;-40
2022/05/19 06:36:32;;;;;;;;;;;;;;;25.47;31.47;101845.66;5074587;28;1214;-40
2022/05/19 06:38:58;;;;;;;;;;;;;;;25.53;30.39;101850.44;5077845;28;932;-37
2022/05/19 06:44:07;;;;;;;;;;;;;;;25.42;29.85;101840.66;5072263;28;1910;-37
2022/05/19 06:46:33;;;;;;;;;;;;;;;25.47;29.69;101839.41;5078425;28;875;-39
2022/05/19 06:49:02;;;;;;;;;;;;;;;25.59;30.24;101840.91;5077129;28;1247;-38
2022/05/19 06:51:27;;;;;;;;;;;;;;;25.57;29.81;101845.63;5076194;28;1406;-38
2022/05/19 06:53:53;;;;;;;;;;;;;;;25.60;29.61;101841.78;5076205;28;895;-38
2022/05/19 06:56:18;;;;;;;;;;;;;;;25.61;29.69;101830.03;5077722;28;782;-38
2022/05/19 06:58:43;;;;;;;;;;;;;;;25.58;29.49;101836.53;5077950;28;878;-38
2022/05/19 07:01:08;;;;;;;;;;;;;;;25.66;29.14;101842.06;5076865;28;1179;-36
2022/05/19 07:03:34;;;;;;;;;;;;;;;25.66;29.11;101841.22;5076870;28;1959;-39
2022/05/19 07:05:59;;;;;;;;;;;;;;;25.68;29.23;101840.09;5074728;28;1166;-37
2022/05/19 07:08:25;;;;;;;;;;;;;;;25.69;29.43;101849.03;5075170;28;1083;-37
2022/05/19 07:10:51;;;;;;;;;;;;;;;25.86;29.47;101843.88;5056415;28;1177;-38
2022/05/19 07:13:16;;;;;;;;;;;;;;;25.77;29.10;101850.97;5072213;28;1187;-40
2022/05/19 07:15:41;;;;;;;;;;;;;;;25.80;29.57;101839.91;5077415;28;851;-39
2022/05/19 07:18:08;;;;;;;;;;;;;;;25.83;28.90;101842.31;5077395;28;802;-37
2022/05/19 07:20:48;;;;;;;;;;;;;;;25.82;28.61;101851.41;5077083;28;785;-38
2022/05/19 07:23:20;;;;;;;;;;;;;;;25.91;29.88;101847.81;5077821;28;1886;-38
2022/05/19 07:25:45;;;;;;;;;;;;;;;25.86;29.24;101843.88;5069938;28;1016;-38
2022/05/19 07:28:12;;;;;;;;;;;;;;;25.91;29.41;101850.50;5076834;28;792;-39
2022/05/19 07:30:37;;;;;;;;;;;;;;;25.94;29.54;101843.97;5076865;28;881;-40
2022/05/19 07:33:02;;;;;;;;;;;;;;;25.91;30.79;101852.34;5076222;28;1159;-38
2022/05/19 07:35:28;;;;;;;;;;;;;;;25.99;29.74;101848.91;5076760;28;825;-37
2022/05/19 07:37:53;;;;;;;;;;;;;;;26.06;30.92;101857.25;5076631;28;762;-37
2022/05/19 07:40:18;;;;;;;;;;;;;;;26.10;31.07;101847.88;5075838;28;984;-37
2022/05/19 07:42:44;;;;;;;;;;;;;;;26.13;30.83;101850.25;5073358;28;1271;-36
2022/05/19 07:45:09;;;;;;;;;;;;;;;26.21;30.90;101850.34;5073777;28;1909;-39
2022/05/19 07:47:34;;;;;;;;;;;;;;;26.15;31.60;101859.91;5070116;28;1084;-38
2022/05/19 07:50:00;;;;;;;;;;;;;;;26.17;30.50;101855.19;5077330;28;778;-40
2022/05/19 07:52:26;;;;;;;;;;;;;;;26.17;29.90;101857.06;5070483;28;1139;-39
2022/05/19 07:54:52;;;;;;;;;;;;;;;26.22;30.93;101856.63;5076899;28;770;-38
2022/05/19 07:57:18;;;;;;;;;;;;;;;26.20;30.87;101856.75;5076740;28;915;-37
2022/05/19 07:59:43;;;;;;;;;;;;;;;26.24;29.71;101852.75;5076518;28;744;-35
2022/05/19 08:02:08;;;;;;;;;;;;;;;26.28;29.83;101853.31;5075804;28;1000;-38
2022/05/19 08:04:34;;;;;;;;;;;;;;;26.33;30.50;101853.75;5074433;28;1898;-38
2022/05/19 08:07:01;;;;;;;;;;;;;;;26.34;30.69;101857.28;5075455;28;1431;-36
2022/05/19 08:12:16;;;;;;;;;;;;;;;26.25;31.01;101851.78;5075437;28;976;-39
2022/05/19 08:17:25;;;;;;;;;;;;;;;26.33;30.52;101859.13;5073619;28;1061;-37
2022/05/19 08:19:50;;;;;;;;;;;;;;;26.43;30.59;101853.69;5074597;28;1373;-38
2022/05/19 08:22:16;;;;;;;;;;;;;;;26.51;29.93;101845.69;5075002;28;794;-37
2022/05/19 08:24:46;;;;;;;;;;;;;;;26.48;29.42;101843.28;5075696;28;1898;-37
2022/05/19 08:27:11;;;;;;;;;;;;;;;26.50;30.01;101849.38;5075239;28;1544;-39
2022/05/19 08:29:37;;;;;;;;;;;;;;;26.52;29.66;101852.78;5075869;28;848;-40
2022/05/19 08:32:02;;;;;;;;;;;;;;;26.58;29.27;101850.44;5074085;28;859;-37
2022/05/19 08:34:27;;;;;;;;;;;;;;;26.50;28.57;101853.91;5075637;28;761;-43
2022/05/19 08:36:53;;;;;;;;;;;;;;;26.36;27.63;101847.22;5072655;28;1088;-41
2022/05/19 08:39:18;;;;;;;;;;;;;;;26.26;26.69;101847.22;5072845;28;1071;-41
2022/05/19 08:41:50;;;;;;;;;;;;;;;26.23;26.56;101847.50;5075858;28;757;-41
2022/05/19 08:44:22;;;;;;;;;;;;;;;26.33;27.89;101855.56;5075886;28;1910;-42
2022/05/19 08:46:48;;;;;;;;;;;;;;;25.93;26.18;101847.66;5056552;28;961;-41
2022/05/19 08:49:15;;;;;;;;;;;;;;;25.91;25.56;101850.50;5074071;28;1087;-42
2022/05/19 08:51:43;;;;;;;;;;;;;;;25.89;25.48;101839.00;5074460;28;1243;-42
2022/05/19 08:54:09;;;;;;;;;;;;;;;26.01;27.22;101844.22;5056816;28;1069;-41
2022/05/19 08:56:39;;;;;;;;;;;;;;;26.03;26.12;101844.91;5055811;28;1472;-40
2022/05/19 08:59:23;;;;;;;;;;;;;;;25.94;27.23;101845.81;5072970;28;1561;-41
2022/05/19 09:01:53;;;;;;;;;;;;;;;26.08;26.25;101834.53;5069663;28;923;-40
2022/05/19 09:04:21;;;;;;;;;;;;;;;26.17;26.77;101840.88;5057388;28;1973;-42
2022/05/19 09:09:50;;;;;;;;;;;;;;;26.13;26.59;101831.38;5074778;28;761;-38
2022/05/19 09:12:18;;;;;;;;;;;;;;;26.13;27.24;101840.31;5056131;28;1051;-44
2022/05/19 09:14:43;;;;;;;;;;;;;;;26.01;26.87;101826.19;5057581;28;1164;-41
2022/05/19 09:17:09;;;;;;;;;;;;;;;25.97;26.46;101832.03;5070041;28;1064;-43
2022/05/19 09:19:43;;;;;;;;;;;;;;;26.09;25.95;101827.31;5071766;28;782;-42
2022/05/19 09:22:09;;;;;;;;;;;;;;;26.06;26.84;101830.31;5074430;28;1034;-42
2022/05/19 09:24:35;;;;;;;;;;;;;;;26.11;26.54;101820.75;5070290;28;1973;-41
2022/05/19 09:27:01;;;;;;;;;;;;;;;26.18;26.80;101818.31;5072476;28;1207;-42
2022/05/19 09:29:32;;;;;;;;;;;;;;;26.19;27.06;101821.84;5072126;28;1342;-42
2022/05/19 09:32:05;;;;;;;;;;;;;;;26.24;26.31;101827.66;5075423;28;875;-40
2022/05/19 09:34:32;;;;;;;;;;;;;;;26.15;26.40;101830.25;5064004;28;868;-41
2022/05/19 09:37:01;;;;;;;;;;;;;;;26.19;26.38;101835.34;5067166;28;1213;-42
2022/05/19 09:39:27;;;;;;;;;;;;;;;26.26;26.08;101823.78;5070398;28;1557;-42
2022/05/19 09:41:53;;;;;;;;;;;;;;;26.38;25.37;101826.31;5068269;28;1196;-41
2022/05/19 09:44:22;;;;;;;;;;;;;;;26.34;25.89;101824.94;5068153;28;1898;-42
2022/05/19 09:46:47;;;;;;;;;;;;;;;26.46;25.43;101828.25;5074111;28;778;-42
2022/05/19 09:49:32;;;;;;;;;;;;;;;26.39;25.66;101818.06;5075494;28;795;-41
2022/05/19 09:52:00;;;;;;;;;;;;;;;26.36;25.16;101810.28;5070729;28;770;-42
2022/05/19 09:54:30;;;;;;;;;;;;;;;26.40;26.19;101808.13;5075117;28;899;-41
2022/05/19 09:56:56;;;;;;;;;;;;;;;26.35;25.46;101796.94;5075185;28;929;-40
2022/05/19 09:59:23;;;;;;;;;;;;;;;26.32;25.70;101813.41;5056679;28;1180;-40
2022/05/19 10:01:49;;;;;;;;;;;;;;;26.43;26.54;101815.06;5075312;28;750;-41
2022/05/19 10:04:18;;;;;;;;;;;;;;;26.32;26.24;101802.59;5075493;28;1897;-42
2022/05/19 10:06:51;;;;;;;;;;;;;;;26.31;26.77;101809.00;5075052;28;952;-42
2022/05/19 10:09:18;;;;;;;;;;;;;;;26.17;27.31;101816.63;5073790;28;1274;-42
2022/05/19 10:11:48;;;;;;;;;;;;;;;26.20;27.59;101812.75;5077985;28;778;-42
2022/05/19 10:14:14;;;;;;;;;;;;;;;26.40;27.53;101817.06;5078276;28;866;-40
2022/05/19 10:16:59;;;;;;;;;;;;;;;26.47;27.27;101809.22;5077065;28;1299;-40
2022/05/19 10:19:41;;;;;;;;;;;;;;;26.58;27.17;101800.03;5078474;28;825;-42
2022/05/19 10:22:25;;;;;;;;;;;;;;;26.63;27.58;101807.66;5054937;28;740;-40
2022/05/19 10:24:59;;;;;;;;;;;;;;;26.69;27.07;101808.91;5077637;28;1947;-42
2022/05/19 10:33:11;;;;;;;;;;;;;;;26.89;27.88;101802.34;5074894;28;1029;-38
2022/05/19 10:35:42;;;;;;;;;;;;;;;26.88;28.03;101803.34;5077776;28;1250;-41
2022/05/19 10:38:27;;;;;;;;;;;;;;;26.87;27.63;101800.81;5073660;28;1155;-38
2022/05/19 10:41:12;;;;;;;;;;;;;;;26.78;28.31;101798.03;5077334;28;1175;-41
2022/05/19 10:43:37;;;;;;;;;;;;;;;26.80;28.12;101800.56;5077949;28;1914;-40
2022/05/19 10:46:02;;;;;;;;;;;;;;;26.85;27.99;101790.16;5077732;28;914;-40
2022/05/19 10:48:47;;;;;;;;;;;;;;;26.84;28.32;101790.31;5060300;28;1282;-40
2022/05/19 10:51:31;;;;;;;;;;;;;;;26.82;28.59;101792.31;5077776;28;773;-40
2022/05/19 10:54:15;;;;;;;;;;;;;;;26.84;28.33;101793.84;5078049;28;838;-38
2022/05/19 10:56:43;;;;;;;;;;;;;;;26.88;28.27;101776.34;5073050;28;1275;-40
2022/05/19 10:59:41;;;;;;;;;;;;;;;26.83;27.99;101783.22;5076189;28;1251;-39
2022/05/19 11:02:21;;;;;;;;;;;;;;;26.82;28.12;101786.94;5026856;28;1293;-41
2022/05/19 11:04:53;;;;;;;;;;;;;;;26.82;28.33;101785.09;5053520;28;1975;-42
2022/05/19 11:07:33;;;;;;;;;;;;;;;26.90;28.43;101787.84;5059866;28;864;-40
2022/05/19 11:10:17;;;;;;;;;;;;;;;26.96;28.38;101782.84;5059418;28;789;-40
2022/05/19 11:13:01;;;;;;;;;;;;;;;26.91;28.54;101783.28;5077605;28;1008;-40
2022/05/19 11:15:34;;;;;;;;;;;;;;;26.99;28.44;101777.94;5070708;28;1259;-40
2022/05/19 11:18:02;;;;;;;;;;;;;;;27.06;28.48;101764.69;5054907;28;1356;-40
2022/05/19 11:20:37;;;;;;;;;;;;;;;27.08;28.71;101768.09;5076810;28;1153;-42
2022/05/19 11:23:07;;;;;;;;;;;;;;;27.10;28.67;101778.72;5059374;28;1898;-41
2022/05/19 11:28:40;;;;;;;;;;;;;;;27.19;28.40;101761.59;5071369;28;982;-40
2022/05/19 11:31:13;;;;;;;;;;;;;;;27.20;28.42;101768.69;5075417;28;1309;-42
2022/05/19 11:33:39;;;;;;;;;;;;;;;27.16;28.39;101761.06;5055534;28;1144;-42
2022/05/19 11:36:27;;;;;;;;;;;;;;;27.19;28.44;101758.91;5055384;28;1366;-42
2022/05/19 11:39:12;;;;;;;;;;;;;;;27.20;28.75;101751.63;5076521;28;1249;-42
2022/05/19 11:41:38;;;;;;;;;;;;;;;27.23;28.76;101757.56;5067329;28;1060;-41
2022/05/19 11:44:14;;;;;;;;;;;;;;;27.29;28.42;101755.22;5054220;28;1906;-42
2022/05/19 11:46:58;;;;;;;;;;;;;;;27.43;28.43;101737.56;5075854;28;1046;-41
2022/05/19 11:55:32;;;;;;;;;;;;;;;27.42;28.03;101734.03;5055701;28;742;-45
2022/05/19 11:58:04;;;;;;;;;;;;;;;27.50;28.30;101744.88;5055884;28;1094;-45
2022/05/19 12:00:30;;;;;;;;;;;;;;;27.51;28.29;101748.41;5052850;28;989;-46
2022/05/19 12:02:56;;;;;;;;;;;;;;;27.43;28.52;101737.56;5058450;28;1175;-47
2022/05/19 12:05:43;;;;;;;;;;;;;;;27.35;28.60;101736.53;5076208;28;1980;-45
2022/05/19 12:08:11;;;;;;;;;;;;;;;27.36;28.53;101734.69;5063321;28;1497;-46
2022/05/19 12:10:37;;;;;;;;;;;;;;;27.37;28.35;101739.06;5075416;28;1289;-48
2022/05/19 12:13:03;;;;;;;;;;;;;;;27.16;26.83;101731.34;5057819;28;1173;-45
2022/05/19 12:15:35;;;;;;;;;;;;;;;26.85;25.81;101722.69;5058008;28;1053;-45
2022/05/19 12:18:19;;;;;;;;;;;;;;;26.61;25.24;101713.38;5076206;28;1100;-45
2022/05/19 12:20:45;;;;;;;;;;;;;;;26.44;25.20;101712.41;5074064;28;1487;-47
2022/05/19 12:23:33;;;;;;;;;;;;;;;26.49;25.01;101711.94;5076446;28;1961;-47
2022/05/19 12:26:00;;;;;;;;;;;;;;;26.82;25.55;101716.75;5057170;28;1553;-42
2022/05/19 12:28:28;;;;;;;;;;;;;;;27.06;26.12;101721.47;5076087;28;1084;-44
2022/05/19 12:33:49;;;;;;;;;;;;;;;27.19;26.95;101710.28;5074900;28;821;-45
2022/05/19 12:36:25;;;;;;;;;;;;;;;27.23;27.09;101700.81;5076281;28;770;-45
2022/05/19 12:38:51;;;;;;;;;;;;;;;27.25;27.16;101696.13;5074333;28;1230;-45
2022/05/19 12:41:23;;;;;;;;;;;;;;;27.31;26.91;101691.91;5071839;28;1293;-44
2022/05/19 12:43:49;;;;;;;;;;;;;;;27.36;27.30;101697.69;5069932;28;1957;-44
2022/05/19 12:46:33;;;;;;;;;;;;;;;27.36;26.80;101688.75;5070456;28;972;-44
2022/05/19 12:49:16;;;;;;;;;;;;;;;27.35;26.96;101696.00;5070345;28;831;-45
2022/05/19 12:51:46;;;;;;;;;;;;;;;27.36;27.18;101681.47;5074815;28;999;-44
2022/05/19 12:54:11;;;;;;;;;;;;;;;27.36;27.49;101686.88;5075793;28;1144;-44
2022/05/19 12:56:46;;;;;;;;;;;;;;;27.36;27.31;101686.03;5058103;28;785;-44
2022/05/19 12:59:30;;;;;;;;;;;;;;;27.42;27.56;101679.13;5074911;28;1039;-45
2022/05/19 13:01:57;;;;;;;;;;;;;;;27.46;27.30;101688.63;5073480;28;1210;-45
2022/05/19 13:04:25;;;;;;;;;;;;;;;27.46;27.26;101678.63;5074922;28;1963;-45
2022/05/19 13:06:52;;;;;;;;;;;;;;;27.46;27.58;101681.34;5075488;28;1291;-46
2022/05/19 13:09:21;;;;;;;;;;;;;;;27.38;27.56;101676.75;5053408;28;1171;-46
2022/05/19 13:11:48;;;;;;;;;;;;;;;27.51;27.63;101684.41;5071446;28;813;-44
2022/05/19 13:14:15;;;;;;;;;;;;;;;27.37;26.31;101671.50;5057270;28;829;-45
2022/05/19 13:16:44;;;;;;;;;;;;;;;27.29;26.04;101658.81;5057429;28;920;-44
2022/05/19 13:19:14;;;;;;;;;;;;;;;27.35;25.59;101658.16;5075800;28;838;-44
2022/05/19 13:22:02;;;;;;;;;;;;;;;27.36;25.52;101665.25;5045093;28;1081;-45
2022/05/19 13:24:27;;;;;;;;;;;;;;;27.36;25.84;101659.03;5074206;28;1898;-45
2022/05/19 13:32:27;;;;;;;;;;;;;;;27.45;26.54;101647.22;5074085;28;1073;-45